createdAt,value
2018-04-25T00:01:21.854Z,2.80
2018-04-25T00:03:49.347Z,2.83
2018-04-25T00:06:16.889Z,2.77
2018-04-25T00:08:44.381Z,2.70
2018-04-25T00:11:12.683Z,3.00
2018-04-25T00:13:40.215Z,2.57
2018-04-25T00:16:08.480Z,2.83
2018-04-25T00:18:36.695Z,2.87
2018-04-25T00:21:04.941Z,2.90
2018-04-25T00:23:32.465Z,2.80
2018-04-25T00:26:00.777Z,2.80
2018-04-25T00:28:29.046Z,2.93
2018-04-25T00:30:57.314Z,2.87
2018-04-25T00:33:24.797Z,3.07
2018-04-25T00:35:53.179Z,2.90
2018-04-25T00:38:20.733Z,2.90
2018-04-25T00:40:48.328Z,3.13
2018-04-25T00:43:15.757Z,2.57
2018-04-25T00:45:43.340Z,3.00
2018-04-25T00:48:11.566Z,2.90
2018-04-25T00:50:40.652Z,2.80
2018-04-25T00:53:08.187Z,2.97
2018-04-25T00:55:35.700Z,2.63
2018-04-25T00:58:03.181Z,2.70
2018-04-25T01:00:30.664Z,2.73
2018-04-25T01:02:58.150Z,2.70
2018-04-25T01:05:26.488Z,2.87
2018-04-25T01:07:53.982Z,3.07
2018-04-25T01:10:22.221Z,2.83
2018-04-25T01:12:49.726Z,2.90
2018-04-25T01:15:17.306Z,2.80
2018-04-25T01:17:45.637Z,2.50
2018-04-25T01:20:13.169Z,2.70
2018-04-25T01:22:41.114Z,2.47
2018-04-25T01:28:19.158Z,2.77
2018-04-25T01:30:54.348Z,3.00
2018-04-25T01:33:23.895Z,2.70
2018-04-25T01:35:57.809Z,2.90
2018-04-25T01:38:45.021Z,2.57
2018-04-25T01:41:14.252Z,2.90
2018-04-25T01:43:43.272Z,2.63
2018-04-25T01:49:32.970Z,3.07
2018-04-25T01:52:12.981Z,3.17
2018-04-25T01:54:52.442Z,2.70
2018-04-25T01:57:32.570Z,2.60
2018-04-25T02:00:11.946Z,2.70
2018-04-25T02:02:38.973Z,3.00
2018-04-25T02:05:07.216Z,2.90
2018-04-25T02:07:34.701Z,2.87
2018-04-25T02:10:02.962Z,2.40
2018-04-25T02:12:30.441Z,2.90
2018-04-25T02:14:58.709Z,2.70
2018-04-25T02:17:27.037Z,2.67
2018-04-25T02:19:55.141Z,2.60
2018-04-25T02:22:22.641Z,2.73
2018-04-25T02:24:50.128Z,2.80
2018-04-25T02:27:17.615Z,2.70
2018-04-25T02:29:45.161Z,3.00
2018-04-25T02:32:12.640Z,2.53
2018-04-25T02:34:40.129Z,2.90
2018-04-25T02:37:07.639Z,2.70
2018-04-25T02:39:35.136Z,2.77
2018-04-25T02:42:03.385Z,2.70
2018-04-25T02:44:31.373Z,2.50
2018-04-25T02:46:59.649Z,2.60
2018-04-25T02:49:27.917Z,2.80
2018-04-25T02:51:56.677Z,2.70
2018-04-25T02:54:25.047Z,2.37
2018-04-25T02:56:52.588Z,2.87
2018-04-25T02:59:20.093Z,2.83
2018-04-25T03:01:47.610Z,2.83
2018-04-25T03:04:15.105Z,2.83
2018-04-25T03:06:42.593Z,2.83
2018-04-25T03:09:10.100Z,2.40
2018-04-25T03:11:37.616Z,2.50
2018-04-25T03:14:05.093Z,2.43
2018-04-25T03:16:32.686Z,3.10
2018-04-25T03:19:01.009Z,2.67
2018-04-25T03:21:28.492Z,2.40
2018-04-25T03:23:55.981Z,2.77
2018-04-25T03:26:23.465Z,2.87
2018-04-25T03:28:51.723Z,2.83
2018-04-25T03:31:19.995Z,2.90
2018-04-25T03:33:47.474Z,2.80
2018-04-25T03:36:15.729Z,2.90
2018-04-25T03:38:43.989Z,2.80
2018-04-25T03:41:11.541Z,2.50
2018-04-25T03:43:39.006Z,3.00
2018-04-25T03:46:06.575Z,2.90
2018-04-25T03:48:34.163Z,2.90
2018-04-25T03:51:02.521Z,2.87
2018-04-25T03:53:30.821Z,2.50
2018-04-25T03:55:59.048Z,2.53
2018-04-25T03:58:27.410Z,2.93
2018-04-25T04:00:54.905Z,2.40
2018-04-25T04:03:23.144Z,2.87
2018-04-25T04:05:50.631Z,2.70
2018-04-25T04:08:18.882Z,2.67
2018-04-25T04:10:46.380Z,2.90
2018-04-25T04:13:14.626Z,2.70
2018-04-25T04:15:42.101Z,2.80
2018-04-25T04:18:10.361Z,2.73
2018-04-25T04:20:37.892Z,2.90
2018-04-25T04:23:05.471Z,2.60
2018-04-25T04:25:32.998Z,2.80
2018-04-25T04:28:00.524Z,2.53
2018-04-25T04:30:28.042Z,2.57
2018-04-25T04:32:56.283Z,2.70
2018-04-25T04:35:23.780Z,2.70
2018-04-25T04:37:51.266Z,2.63
2018-04-25T04:40:19.556Z,2.90
2018-04-25T04:42:47.078Z,2.80
2018-04-25T04:45:14.556Z,2.90
2018-04-25T04:47:42.825Z,3.00
2018-04-25T04:50:11.077Z,2.80
2018-04-25T04:52:38.645Z,3.00
2018-04-25T04:55:06.164Z,3.00
2018-04-25T04:57:33.649Z,3.00
2018-04-25T05:00:01.933Z,2.40
2018-04-25T05:02:30.937Z,2.80
2018-04-25T05:04:59.188Z,3.20
2018-04-25T05:07:26.689Z,3.10
2018-04-25T05:09:54.189Z,3.70
2018-04-25T05:12:21.663Z,3.00
2018-04-25T05:14:49.137Z,3.00
2018-04-25T05:17:17.370Z,2.77
2018-04-25T05:19:46.309Z,3.03
2018-04-25T05:22:14.703Z,3.30
2018-04-25T05:24:43.005Z,3.00
2018-04-25T05:27:10.464Z,2.73
2018-04-25T05:29:37.958Z,3.00
2018-04-25T05:32:05.484Z,3.37
2018-04-25T05:34:33.749Z,3.40
2018-04-25T05:37:01.241Z,3.07
2018-04-25T05:39:28.741Z,3.50
2018-04-25T05:41:56.254Z,3.07
2018-04-25T05:44:24.630Z,3.30
2018-04-25T05:46:52.255Z,3.40
2018-04-25T05:49:19.773Z,3.20
2018-04-25T05:51:48.140Z,3.43
2018-04-25T05:54:15.573Z,2.77
2018-04-25T05:56:43.077Z,3.20
2018-04-25T05:59:11.333Z,3.10
2018-04-25T06:01:39.689Z,3.30
2018-04-25T06:04:07.219Z,3.10
2018-04-25T06:06:35.293Z,2.77
2018-04-25T06:09:02.789Z,2.83
2018-04-25T06:11:30.301Z,2.73
2018-04-25T06:13:57.888Z,2.90
2018-04-25T06:16:25.414Z,2.90
2018-04-25T06:18:52.921Z,3.00
2018-04-25T06:21:20.517Z,2.73
2018-04-25T06:23:48.091Z,2.70
2018-04-25T06:26:15.597Z,2.97
2018-04-25T06:28:43.780Z,3.20
2018-04-25T06:31:11.263Z,2.60
2018-04-25T06:33:38.774Z,3.03
2018-04-25T06:36:06.268Z,2.80
2018-04-25T06:38:34.575Z,3.00
2018-04-25T06:41:02.073Z,3.00
2018-04-25T06:43:30.105Z,2.70
2018-04-25T06:45:57.618Z,2.60
2018-04-25T06:48:25.861Z,2.20
2018-04-25T06:50:53.356Z,2.43
2018-04-25T06:53:21.612Z,2.57
2018-04-25T06:55:49.102Z,3.00
2018-04-25T06:58:17.361Z,2.73
2018-04-25T07:00:46.352Z,2.67
2018-04-25T07:03:14.596Z,2.53
2018-04-25T07:05:42.157Z,2.47
2018-04-25T07:08:09.919Z,2.60
2018-04-25T07:10:38.046Z,2.93
2018-04-25T07:13:07.025Z,2.93
2018-04-25T07:15:35.332Z,2.47
2018-04-25T07:18:03.620Z,2.60
2018-04-25T07:20:31.102Z,2.43
2018-04-25T07:22:58.659Z,2.80
2018-04-25T07:25:26.139Z,2.50
2018-04-25T07:27:54.457Z,2.70
2018-04-25T07:30:22.705Z,2.70
2018-04-25T07:32:51.823Z,2.90
2018-04-25T07:35:22.904Z,3.23
2018-04-25T07:37:50.393Z,2.43
2018-04-25T07:40:17.909Z,2.60
2018-04-25T07:42:45.608Z,2.80
2018-04-25T07:45:13.889Z,2.60
2018-04-25T07:47:42.208Z,2.87
2018-04-25T07:50:09.905Z,2.90
2018-04-25T07:52:37.526Z,3.93
2018-04-25T07:55:05.013Z,2.57
2018-04-25T07:57:32.565Z,2.80
2018-04-25T08:00:00.231Z,2.50
2018-04-25T08:02:27.860Z,3.27
2018-04-25T08:04:55.462Z,2.53
2018-04-25T08:07:22.977Z,2.47
2018-04-25T08:09:51.921Z,2.70
2018-04-25T08:12:31.965Z,2.90
2018-04-25T08:15:11.281Z,2.60
2018-04-25T08:17:50.674Z,2.63
2018-04-25T08:37:37.015Z,2.97
2018-04-25T08:40:04.673Z,2.40
2018-04-25T08:42:32.186Z,2.67
2018-04-25T08:45:00.574Z,2.50
2018-04-25T08:47:28.093Z,2.67
2018-04-25T08:49:55.583Z,2.70
2018-04-25T08:52:23.981Z,2.40
2018-04-25T08:54:52.003Z,2.90
2018-04-25T08:57:19.554Z,2.70
2018-04-25T08:59:48.383Z,2.50
2018-04-25T09:02:15.886Z,3.13
2018-04-25T09:04:43.419Z,2.80
2018-04-25T09:07:11.505Z,2.83
2018-04-25T09:09:39.892Z,2.80
2018-04-25T09:12:07.389Z,2.57
2018-04-25T09:14:35.720Z,2.70
2018-04-25T09:17:06.291Z,2.60
2018-04-25T09:19:35.463Z,2.40
2018-04-25T09:22:03.224Z,2.50
2018-04-25T09:24:31.686Z,2.77
2018-04-25T09:27:00.020Z,2.60
2018-04-25T09:29:27.563Z,2.93
2018-04-25T09:31:55.822Z,2.50
2018-04-25T09:34:23.348Z,2.80
2018-04-25T09:36:50.835Z,2.40
2018-04-25T09:39:18.349Z,2.77
2018-04-25T09:41:45.837Z,2.63
2018-04-25T09:44:13.322Z,2.50
2018-04-25T09:46:41.605Z,2.20
2018-04-25T09:49:09.893Z,1.87
2018-04-25T09:51:38.144Z,2.30
2018-04-25T09:54:05.694Z,2.20
2018-04-25T09:56:34.094Z,2.50
2018-04-25T09:59:02.342Z,2.10
2018-04-25T10:01:30.715Z,2.00
2018-04-25T10:03:58.242Z,2.43
2018-04-25T10:06:25.748Z,2.13
2018-04-25T10:08:53.232Z,2.10
2018-04-25T10:11:21.484Z,2.40
2018-04-25T10:13:48.987Z,2.17
2018-04-25T10:16:16.520Z,1.83
2018-04-25T10:18:44.817Z,1.87
2018-04-25T10:21:13.102Z,1.90
2018-04-25T10:23:40.584Z,2.00
2018-04-25T10:26:08.124Z,2.40
2018-04-25T10:28:35.635Z,2.00
2018-04-25T10:31:03.194Z,1.80
2018-04-25T10:33:31.466Z,2.10
2018-04-25T10:35:59.712Z,1.90
2018-04-25T10:38:27.367Z,2.23
2018-04-25T10:40:54.891Z,2.27
2018-04-25T10:43:22.425Z,1.77
2018-04-25T10:45:50.676Z,2.20
2018-04-25T10:48:18.168Z,1.70
2018-04-25T10:50:45.672Z,1.90
2018-04-25T10:53:13.153Z,2.03
2018-04-25T10:55:40.660Z,1.67
2018-04-25T10:58:08.740Z,1.83
2018-04-25T11:00:36.277Z,1.80
2018-04-25T11:03:03.873Z,1.90
2018-04-25T11:05:31.424Z,1.90
2018-04-25T11:08:14.588Z,1.97
2018-04-25T11:10:42.185Z,2.00
2018-04-25T11:13:09.714Z,1.83
2018-04-25T11:15:37.997Z,1.93
2018-04-25T11:18:06.294Z,1.73
2018-04-25T11:20:33.936Z,1.90
2018-04-25T11:23:02.236Z,1.90
2018-04-25T11:25:29.724Z,2.20
2018-04-25T11:27:57.250Z,2.13
2018-04-25T11:30:24.738Z,2.33
2018-04-25T11:32:52.257Z,1.90
2018-04-25T11:35:19.781Z,2.10
2018-04-25T11:37:48.073Z,2.10
2018-04-25T11:40:16.318Z,1.77
2018-04-25T11:42:45.297Z,2.00
2018-04-25T11:45:12.832Z,2.00
2018-04-25T11:47:40.317Z,1.80
2018-04-25T11:50:08.557Z,2.10
2018-04-25T11:52:36.859Z,1.63
2018-04-25T11:57:53.600Z,1.80
2018-04-25T12:00:21.112Z,2.30
2018-04-25T12:02:48.593Z,1.77
2018-04-25T12:05:16.682Z,1.90
2018-04-25T12:07:44.805Z,2.00
2018-04-25T12:10:12.301Z,2.10
2018-04-25T12:12:39.802Z,2.13
2018-04-25T12:15:08.058Z,1.70
2018-04-25T12:17:35.536Z,1.80
2018-04-25T12:20:03.789Z,1.67
2018-04-25T12:22:31.305Z,1.70
2018-04-25T12:24:58.780Z,1.80
2018-04-25T12:27:26.284Z,1.47
2018-04-25T12:29:54.520Z,2.00
2018-04-25T12:32:22.011Z,1.70
2018-04-25T12:34:50.258Z,1.83
2018-04-25T12:37:18.344Z,1.80
2018-04-25T12:39:45.842Z,1.90
2018-04-25T12:42:13.401Z,1.87
2018-04-25T12:44:40.940Z,1.70
2018-04-25T12:47:09.847Z,1.30
2018-04-25T12:49:37.321Z,1.73
2018-04-25T12:52:04.827Z,1.67
2018-04-25T12:54:33.090Z,1.50
2018-04-25T12:57:00.660Z,1.47
2018-04-25T12:59:28.945Z,1.80
2018-04-25T13:01:57.202Z,1.97
2018-04-25T13:04:24.695Z,1.90
2018-04-25T13:06:52.218Z,1.30
2018-04-25T13:09:20.191Z,1.60
2018-04-25T13:11:47.745Z,1.50
2018-04-25T13:14:15.319Z,1.80
2018-04-25T13:16:43.598Z,1.80
2018-04-25T13:19:11.850Z,1.80
2018-04-25T13:21:39.351Z,1.70
2018-04-25T13:24:06.841Z,1.93
2018-04-25T13:26:34.377Z,1.70
2018-04-25T13:29:01.895Z,1.70
2018-04-25T13:31:30.207Z,2.00
2018-04-25T13:33:57.697Z,1.90
2018-04-25T13:36:25.913Z,1.50
2018-04-25T13:38:54.169Z,2.57
2018-04-25T13:41:21.718Z,2.80
2018-04-25T13:43:49.222Z,2.20
2018-04-25T13:46:16.761Z,2.13
2018-04-25T13:48:45.018Z,2.30
2018-04-25T13:51:12.555Z,2.10
2018-04-25T13:53:40.039Z,1.90
2018-04-25T13:56:07.526Z,1.90
2018-04-25T13:58:35.024Z,2.43
2018-04-25T14:01:02.514Z,2.10
2018-04-25T14:03:30.783Z,1.93
2018-04-25T14:05:59.028Z,1.97
2018-04-25T14:08:27.345Z,1.83
2018-04-25T14:10:55.592Z,2.07
2018-04-25T14:13:23.126Z,2.10
2018-04-25T14:15:50.597Z,2.00
2018-04-25T14:18:18.137Z,1.90
2018-04-25T14:20:45.609Z,2.20
2018-04-25T14:23:13.136Z,2.20
2018-04-25T14:25:40.652Z,1.97
2018-04-25T14:28:08.139Z,2.03
2018-04-25T14:30:35.640Z,1.90
2018-04-25T14:33:03.136Z,2.10
2018-04-25T14:35:31.441Z,2.03
2018-04-25T14:37:58.925Z,2.00
2018-04-25T14:40:26.431Z,1.80
2018-04-25T14:42:54.701Z,1.90
2018-04-25T14:45:22.969Z,1.80
2018-04-25T14:47:50.507Z,1.80
2018-04-25T14:50:18.037Z,2.23
2018-04-25T14:52:45.514Z,1.90
2018-04-25T14:55:13.009Z,2.00
2018-04-25T14:57:41.264Z,1.70
2018-04-25T15:00:08.774Z,1.90
2018-04-25T15:02:36.265Z,1.70
2018-04-25T15:05:03.769Z,2.10
2018-04-25T15:07:32.101Z,1.80
2018-04-25T15:09:59.608Z,1.90
2018-04-25T15:12:27.869Z,1.97
2018-04-25T15:14:56.170Z,1.93
2018-04-25T15:17:23.669Z,1.90
2018-04-25T15:19:52.128Z,1.83
2018-04-25T15:22:21.169Z,1.90
2018-04-25T15:24:49.412Z,2.00
2018-04-25T15:27:16.969Z,1.90
2018-04-25T15:29:44.461Z,2.17
2018-04-25T15:32:12.883Z,1.60
2018-04-25T15:34:40.407Z,1.73
2018-04-25T15:37:08.652Z,2.00
2018-04-25T15:39:36.177Z,2.00
2018-04-25T15:42:03.706Z,1.80
2018-04-25T15:44:31.961Z,1.63
2018-04-25T15:46:59.504Z,1.70
2018-04-25T15:49:27.030Z,1.83
2018-04-25T15:51:55.116Z,1.80
2018-04-25T15:54:22.594Z,1.77
2018-04-25T15:56:50.120Z,1.70
2018-04-25T15:59:17.605Z,1.90
2018-04-25T16:01:45.092Z,1.80
2018-04-25T16:04:13.376Z,1.70
2018-04-25T16:06:40.877Z,1.90
2018-04-25T16:09:08.378Z,1.60
2018-04-25T16:11:37.220Z,1.77
2018-04-25T16:14:04.806Z,1.93
2018-04-25T16:16:32.295Z,1.70
2018-04-25T16:19:00.530Z,1.60
2018-04-25T16:21:28.025Z,1.63
2018-04-25T16:23:55.564Z,2.00
2018-04-25T16:26:23.049Z,1.50
2018-04-25T16:28:50.593Z,1.70
2018-04-25T16:31:18.138Z,1.73
2018-04-25T16:33:45.628Z,2.00
2018-04-25T16:36:13.119Z,1.73
2018-04-25T16:38:40.613Z,1.60
2018-04-25T16:41:08.879Z,1.63
2018-04-25T16:43:36.366Z,2.00
2018-04-25T16:46:03.846Z,1.70
2018-04-25T16:48:31.342Z,1.90
2018-04-25T16:50:58.839Z,1.80
2018-04-25T16:53:26.333Z,1.80
2018-04-25T16:55:53.869Z,1.60
2018-04-25T16:58:21.379Z,1.60
2018-04-25T17:00:48.867Z,1.90
2018-04-25T17:03:16.373Z,1.90
2018-04-25T17:05:44.579Z,1.70
2018-04-25T17:08:12.861Z,1.70
2018-04-25T17:10:41.881Z,1.70
2018-04-25T17:13:09.477Z,1.60
2018-04-25T17:15:36.964Z,1.50
2018-04-25T17:18:05.225Z,1.90
2018-04-25T17:20:32.714Z,1.80
2018-04-25T17:23:01.163Z,1.83
2018-04-25T17:25:29.372Z,1.80
2018-04-25T17:27:56.885Z,1.73
2018-04-25T17:30:24.381Z,1.50
2018-04-25T17:32:52.633Z,1.70
2018-04-25T17:35:20.915Z,1.77
2018-04-25T17:37:49.180Z,1.60
2018-04-25T17:40:16.670Z,1.70
2018-04-25T17:42:44.321Z,1.70
2018-04-25T17:45:11.777Z,1.70
2018-04-25T17:47:40.041Z,1.80
2018-04-25T17:50:09.189Z,1.73
2018-04-25T17:52:36.718Z,2.00
2018-04-25T17:55:04.202Z,1.80
2018-04-25T17:57:31.751Z,1.70
2018-04-25T17:59:59.188Z,1.50
2018-04-25T18:02:26.673Z,1.67
2018-04-25T18:04:54.158Z,1.40
2018-04-25T18:07:21.644Z,1.70
2018-04-25T18:09:49.929Z,1.60
2018-04-25T18:12:17.439Z,1.50
2018-04-25T18:14:44.943Z,1.60
2018-04-25T18:17:13.222Z,1.70
2018-04-25T18:19:41.487Z,1.50
2018-04-25T18:22:09.788Z,1.57
2018-04-25T18:24:38.036Z,1.73
2018-04-25T18:27:06.301Z,1.63
2018-04-25T18:29:33.788Z,1.70
2018-04-25T18:32:01.289Z,1.60
2018-04-25T18:34:28.800Z,1.67
2018-04-25T18:36:56.325Z,1.60
2018-04-25T18:39:23.839Z,2.03
2018-04-25T18:41:51.401Z,1.50
2018-04-25T18:44:18.908Z,1.40
2018-04-25T18:46:47.176Z,1.70
2018-04-25T18:49:15.361Z,1.43
2018-04-25T18:51:43.681Z,1.70
2018-04-25T18:54:11.205Z,1.40
2018-04-25T18:56:40.756Z,1.50
2018-04-25T18:59:08.360Z,1.53
2018-04-25T19:01:36.618Z,1.70
2018-04-25T19:04:04.125Z,1.67
2018-04-25T19:06:32.245Z,1.47
2018-04-25T19:08:59.728Z,1.50
2018-04-25T19:11:27.988Z,1.50
2018-04-25T19:13:56.176Z,1.60
2018-04-25T19:16:25.030Z,1.77
2018-04-25T19:18:52.525Z,1.70
2018-04-25T19:21:20.797Z,1.40
2018-04-25T19:23:49.175Z,1.37
2018-04-25T19:26:17.436Z,1.60
2018-04-25T19:28:44.913Z,1.60
2018-04-25T19:31:12.419Z,1.60
2018-04-25T19:33:39.972Z,1.50
2018-04-25T19:36:08.177Z,1.70
2018-04-25T19:38:35.692Z,1.80
2018-04-25T19:41:03.254Z,1.60
2018-04-25T19:43:30.822Z,1.50
2018-04-25T19:45:58.369Z,1.37
2018-04-25T19:48:25.860Z,1.60
2018-04-25T19:50:53.370Z,1.27
2018-04-25T19:53:20.853Z,1.57
2018-04-25T19:55:48.349Z,1.50
2018-04-25T19:58:16.632Z,1.60
2018-04-25T20:00:45.484Z,1.50
2018-04-25T20:03:12.989Z,1.47
2018-04-25T20:05:41.236Z,1.60
2018-04-25T20:08:08.754Z,1.60
2018-04-25T20:10:36.225Z,1.60
2018-04-25T20:13:03.774Z,1.20
2018-04-25T20:15:31.368Z,1.60
2018-04-25T20:17:58.886Z,1.50
2018-04-25T20:20:27.150Z,1.60
2018-04-25T20:22:54.642Z,1.50
2018-04-25T20:25:22.194Z,1.73
2018-04-25T20:27:49.692Z,1.40
2018-04-25T20:30:17.977Z,1.50
2018-04-25T20:32:46.245Z,1.40
2018-04-25T20:35:14.525Z,1.70
2018-04-25T20:37:42.829Z,1.60
2018-04-25T20:40:10.310Z,1.43
2018-04-25T20:42:37.800Z,1.53
2018-04-25T20:45:05.892Z,1.50
2018-04-25T20:47:34.879Z,1.33
2018-04-25T20:50:03.125Z,1.43
2018-04-25T20:52:30.613Z,1.30
2018-04-25T20:54:58.885Z,1.83
2018-04-25T20:57:27.144Z,1.33
2018-04-25T20:59:55.253Z,1.50
2018-04-25T21:02:22.780Z,1.43
2018-04-25T21:04:50.276Z,1.90
2018-04-25T21:07:17.750Z,1.50
2018-04-25T21:09:45.285Z,1.50
2018-04-25T21:12:12.790Z,1.30
2018-04-25T21:14:40.290Z,1.40
2018-04-25T21:17:08.394Z,1.57
2018-04-25T21:19:36.569Z,1.50
2018-04-25T21:22:04.075Z,1.43
2018-04-25T21:24:32.421Z,1.50
2018-04-25T21:26:59.952Z,1.40
2018-04-25T21:29:27.520Z,1.30
2018-04-25T21:31:55.005Z,1.60
2018-04-25T21:34:22.656Z,1.50
2018-04-25T21:36:50.163Z,1.30
2018-04-25T21:39:18.526Z,1.40
2018-04-25T21:41:46.777Z,1.40
2018-04-25T21:44:14.265Z,1.30
2018-04-25T21:46:41.769Z,1.40
2018-04-25T21:49:09.260Z,1.30
2018-04-25T21:51:36.734Z,1.60
2018-04-25T21:54:05.701Z,1.50
2018-04-25T21:56:33.192Z,1.40
2018-04-25T21:59:00.679Z,1.20
2018-04-25T22:01:28.176Z,1.30
2018-04-25T22:03:56.234Z,1.37
2018-04-25T22:06:23.723Z,1.53
2018-04-25T22:08:51.971Z,1.50
2018-04-25T22:11:20.343Z,1.50
2018-04-25T22:13:47.833Z,1.63
2018-04-25T22:16:16.111Z,1.43
2018-04-25T22:18:44.381Z,1.40
2018-04-25T22:21:12.693Z,1.50
2018-04-25T22:23:40.193Z,1.70
2018-04-25T22:26:07.693Z,1.43
2018-04-25T22:31:09.662Z,1.40
2018-04-25T22:33:37.173Z,1.50
2018-04-25T22:36:04.659Z,1.50
2018-04-25T22:38:32.912Z,1.40
2018-04-25T22:41:00.405Z,1.40
2018-04-25T22:43:28.652Z,1.40
2018-04-25T22:45:56.125Z,1.40
2018-04-25T22:48:24.403Z,1.40
2018-04-25T22:50:52.673Z,1.43
2018-04-25T22:53:20.913Z,1.33
2018-04-25T22:55:49.353Z,1.50
2018-04-25T22:58:16.837Z,1.50
2018-04-25T23:00:44.316Z,1.23
2018-04-25T23:03:11.804Z,1.40
2018-04-25T23:05:40.085Z,1.57
2018-04-25T23:08:07.615Z,1.60
2018-04-25T23:10:35.593Z,1.60
2018-04-25T23:13:03.863Z,1.40
2018-04-25T23:15:31.350Z,1.40
2018-04-25T23:17:58.853Z,1.63
2018-04-25T23:20:26.353Z,1.37
2018-04-25T23:22:54.610Z,1.50
2018-04-25T23:25:22.100Z,1.50
2018-04-25T23:27:49.592Z,1.50
2018-04-25T23:30:17.072Z,1.50
2018-04-25T23:32:44.545Z,1.57
2018-04-25T23:35:12.810Z,1.30
2018-04-25T23:37:41.081Z,1.37
2018-04-25T23:40:08.575Z,1.43
2018-04-25T23:42:36.073Z,1.80
2018-04-25T23:45:03.557Z,1.40
2018-04-25T23:47:31.046Z,1.40
2018-04-25T23:49:59.305Z,1.40
2018-04-25T23:52:27.689Z,1.40
2018-04-25T23:54:55.957Z,1.40
2018-04-25T23:57:24.204Z,1.60
2018-04-25T23:59:51.705Z,1.33
